Аэропорт: Нахичевань. Нахичевань

ICAO: UBBN

METAR:
Информация по данной станции не доступна
METAR:
2020-08-09 23:01:00
TAF UBBN 092301Z 1000/1024 VRB04KT 9999 FEW050 SCT100 TX36/1012Z TN18/1002Z TEMPO 1000/1006 03010KT TEMPO 1006/1016 13014KT